Time;durP1;ratioP1;P1;durP2;ratioP2;P2;SDS_P1;SDS_P2;PMS_P1;PMS_P2;Temp;Humidity;BMP_temperature;BMP_pressure;BME280_temperature;BME280_humidity;BME280_pressure;Samples;Min_cycle;Max_cycle;Signal;HPM_P1;HPM_P2
2023/01/24 00:00:52;;;;;;;31.75;20.63;;;3.30;99.90;;;;;;7353868;19;20034;-60
2023/01/24 00:03:19;;;;;;;30.10;21.65;;;3.30;99.90;;;;;;7355487;19;20023;-60
2023/01/24 00:05:47;;;;;;;29.70;20.65;;;3.30;99.90;;;;;;7356012;19;20023;-60
2023/01/24 00:08:14;;;;;;;28.23;20.88;;;3.30;99.90;;;;;;7356947;19;20030;-60
2023/01/24 00:10:41;;;;;;;32.67;21.90;;;3.40;99.90;;;;;;7352735;19;20015;-63
2023/01/24 00:13:11;;;;;;;29.40;21.10;;;3.30;99.90;;;;;;7352740;19;20014;-61
2023/01/24 00:15:37;;;;;;;30.75;22.38;;;3.30;99.90;;;;;;7360473;19;20022;-62
2023/01/24 00:18:04;;;;;;;29.77;20.92;;;3.40;99.90;;;;;;7354444;19;20033;-61
2023/01/24 00:20:30;;;;;;;30.65;22.05;;;3.30;99.90;;;;;;7353305;19;20023;-62
2023/01/24 00:22:57;;;;;;;31.52;22.35;;;3.30;99.90;;;;;;7356575;19;20022;-61
2023/01/24 00:25:23;;;;;;;30.33;21.98;;;3.30;99.90;;;;;;7358565;19;20488;-60
2023/01/24 00:27:49;;;;;;;31.00;22.40;;;3.30;99.90;;;;;;7354275;19;20023;-60
2023/01/24 00:30:16;;;;;;;33.38;22.98;;;3.30;99.90;;;;;;7352706;19;20382;-60
2023/01/24 00:32:42;;;;;;;34.15;22.77;;;3.30;99.90;;;;;;7349706;19;20014;-60
2023/01/24 00:35:09;;;;;;;25.50;18.92;;;3.30;99.90;;;;;;7356548;19;20019;-61
2023/01/24 00:37:35;;;;;;;30.73;21.52;;;3.40;99.90;;;;;;7358633;19;20018;-61
2023/01/24 00:40:01;;;;;;;31.50;23.35;;;3.30;99.90;;;;;;7351609;19;20737;-61
2023/01/24 00:42:27;;;;;;;33.20;25.40;;;3.30;99.90;;;;;;7356102;19;20342;-60
2023/01/24 00:44:53;;;;;;;30.33;22.83;;;3.30;99.90;;;;;;7351662;19;20018;-60
2023/01/24 00:47:20;;;;;;;34.20;23.20;;;3.30;99.90;;;;;;7357155;19;20677;-60
2023/01/24 00:49:46;;;;;;;34.42;24.27;;;3.30;99.90;;;;;;7358889;19;20375;-61
2023/01/24 00:52:13;;;;;;;30.85;22.88;;;3.30;99.90;;;;;;7352907;19;20045;-61
2023/01/24 00:54:39;;;;;;;31.50;24.42;;;3.30;99.90;;;;;;7356343;19;20014;-60
2023/01/24 00:57:05;;;;;;;36.55;24.20;;;3.30;99.90;;;;;;7351581;19;20025;-60
2023/01/24 00:59:31;;;;;;;34.30;23.38;;;3.30;99.90;;;;;;7354354;19;20023;-60
2023/01/24 01:01:57;;;;;;;37.08;25.40;;;3.30;99.90;;;;;;7353140;19;20018;-60
2023/01/24 01:04:25;;;;;;;35.60;25.58;;;3.30;99.90;;;;;;7355060;19;20051;-61
2023/01/24 01:06:51;;;;;;;38.17;25.73;;;3.30;99.90;;;;;;7357670;19;20690;-60
2023/01/24 01:09:18;;;;;;;35.38;24.35;;;3.30;99.90;;;;;;7356037;19;20434;-60
2023/01/24 01:11:44;;;;;;;35.38;24.17;;;3.30;99.90;;;;;;7353451;19;20018;-61
2023/01/24 01:14:10;;;;;;;34.65;24.25;;;3.30;99.90;;;;;;7355753;19;20528;-60
2023/01/24 01:16:37;;;;;;;34.75;24.35;;;3.30;99.90;;;;;;7357911;19;20025;-60
2023/01/24 01:19:04;;;;;;;32.20;24.35;;;3.30;99.90;;;;;;7352589;19;20015;-61
2023/01/24 01:21:31;;;;;;;32.50;22.25;;;3.30;99.90;;;;;;7355966;19;20022;-60
2023/01/24 01:23:58;;;;;;;34.63;24.05;;;3.30;99.90;;;;;;7352440;19;20022;-61
2023/01/24 01:26:25;;;;;;;32.03;23.13;;;3.20;99.90;;;;;;7358640;19;20082;-60
2023/01/24 01:28:51;;;;;;;32.85;23.15;;;3.30;99.90;;;;;;7350766;19;20025;-61
2023/01/24 01:31:18;;;;;;;33.97;23.95;;;3.30;99.90;;;;;;7357142;19;20019;-60
2023/01/24 01:33:45;;;;;;;30.00;22.00;;;3.30;99.90;;;;;;7353116;19;20045;-61
2023/01/24 01:36:11;;;;;;;32.75;23.02;;;3.30;99.90;;;;;;7357082;19;20470;-61
2023/01/24 01:38:38;;;;;;;33.67;23.35;;;3.30;99.90;;;;;;7355196;19;20018;-60
2023/01/24 01:41:04;;;;;;;35.00;23.27;;;3.30;99.90;;;;;;7364793;19;20022;-60
2023/01/24 01:43:31;;;;;;;30.30;21.98;;;3.30;99.90;;;;;;7366104;19;20022;-60
2023/01/24 01:46:17;;;;;;;30.75;21.13;;;3.30;99.90;;;;;;7366506;19;20458;-60
2023/01/24 01:48:49;;;;;;;30.90;21.38;;;3.30;99.90;;;;;;7367358;19;20358;-61
2023/01/24 01:51:27;;;;;;;28.27;19.92;;;3.30;99.90;;;;;;7365991;19;20019;-61
2023/01/24 01:54:08;;;;;;;28.77;21.25;;;3.30;99.90;;;;;;7362850;19;20018;-60
2023/01/24 01:56:40;;;;;;;27.65;19.42;;;3.30;99.90;;;;;;7369137;19;20023;-62
2023/01/24 01:59:16;;;;;;;27.63;19.98;;;3.30;99.90;;;;;;7364120;19;21135;-60
2023/01/24 02:01:44;;;;;;;30.63;21.35;;;3.30;99.90;;;;;;7363891;19;20022;-63
2023/01/24 02:04:16;;;;;;;29.75;21.23;;;3.30;99.90;;;;;;7369213;19;20397;-62
2023/01/24 02:06:46;;;;;;;29.25;20.77;;;3.30;99.90;;;;;;7367437;19;20019;-62
2023/01/24 02:09:17;;;;;;;30.60;21.25;;;3.30;99.90;;;;;;7371332;19;20541;-62
2023/01/24 02:11:44;;;;;;;29.00;21.45;;;3.30;99.90;;;;;;7362825;19;20022;-62
2023/01/24 02:17:10;;;;;;;28.73;21.60;;;3.30;99.90;;;;;;7373069;19;20478;-60
2023/01/24 02:19:59;;;;;;;28.55;21.60;;;3.30;99.90;;;;;;7376087;19;20466;-60
2023/01/24 02:22:35;;;;;;;26.55;18.55;;;3.30;99.90;;;;;;7375280;19;20057;-60
2023/01/24 02:25:22;;;;;;;26.92;19.83;;;3.30;99.90;;;;;;7370877;19;20037;-61
2023/01/24 02:27:48;;;;;;;24.65;18.40;;;3.30;99.90;;;;;;7372116;19;20097;-62
2023/01/24 02:30:15;;;;;;;28.75;20.73;;;3.30;99.90;;;;;;7377449;19;20010;-62
2023/01/24 02:32:41;;;;;;;26.25;19.90;;;3.30;99.90;;;;;;7367899;19;20022;-62
2023/01/24 02:35:23;;;;;;;29.42;20.00;;;3.30;99.90;;;;;;7372874;19;20041;-62
2023/01/24 02:37:50;;;;;;;27.35;19.90;;;3.30;99.90;;;;;;7371936;19;20655;-62
2023/01/24 02:40:18;;;;;;;25.55;19.25;;;3.30;99.90;;;;;;7373077;19;20478;-63
2023/01/24 02:42:45;;;;;;;27.92;20.25;;;3.30;99.90;;;;;;7373395;19;20018;-62
2023/01/24 02:45:23;;;;;;;27.42;20.02;;;3.30;99.90;;;;;;7369908;19;20449;-61
2023/01/24 02:47:52;;;;;;;25.27;19.30;;;3.30;99.90;;;;;;7374228;19;20454;-60
2023/01/24 02:50:22;;;;;;;29.90;19.98;;;3.30;99.90;;;;;;7376906;19;20494;-62
2023/01/24 02:58:05;;;;;;;26.23;18.98;;;3.30;99.90;;;;;;7374460;19;20043;-62
2023/01/24 02:58:20;;;;;;;24.95;18.00;;;3.30;99.90;;;;;;7372717;19;20019;-62
2023/01/24 03:00:46;;;;;;;24.02;17.20;;;3.30;99.90;;;;;;7365446;19;20026;-62
2023/01/24 03:03:15;;;;;;;24.25;16.98;;;3.30;99.90;;;;;;7369919;19;20030;-63
2023/01/24 03:05:56;;;;;;;24.05;16.05;;;3.30;99.90;;;;;;7372415;19;20019;-62
2023/01/24 03:08:32;;;;;;;25.23;18.13;;;3.40;99.90;;;;;;7375328;19;20019;-64
2023/01/24 03:10:59;;;;;;;23.60;18.35;;;3.30;99.90;;;;;;7373891;19;20502;-63
2023/01/24 03:35:34;;;;;;;24.52;17.05;;;3.30;99.90;;;;;;7371195;19;20485;-62
2023/01/24 03:40:45;;;;;;;22.70;17.90;;;3.30;99.90;;;;;;7371383;19;20534;-60
2023/01/24 03:43:12;;;;;;;21.05;15.52;;;3.30;99.90;;;;;;7370091;19;20047;-63
2023/01/24 03:45:40;;;;;;;18.48;14.45;;;3.30;99.90;;;;;;7366558;19;20031;-62
2023/01/24 03:48:13;;;;;;;16.95;13.20;;;3.30;99.90;;;;;;7370600;19;20108;-62
2023/01/24 03:53:31;;;;;;;21.38;15.52;;;3.30;99.90;;;;;;7371611;19;20703;-62
2023/01/24 03:56:01;;;;;;;21.23;16.25;;;3.30;99.90;;;;;;7366441;19;20030;-62
2023/01/24 03:58:33;;;;;;;23.33;15.45;;;3.30;99.90;;;;;;7372026;19;20025;-62
2023/01/24 04:01:03;;;;;;;22.10;16.55;;;3.30;99.90;;;;;;7367736;19;20111;-62
2023/01/24 04:03:47;;;;;;;28.30;16.80;;;3.30;99.90;;;;;;7371919;19;20099;-63
2023/01/24 04:06:14;;;;;;;22.13;17.27;;;3.30;99.90;;;;;;7371619;19;20022;-63
2023/01/24 04:08:41;;;;;;;23.95;18.42;;;3.20;99.90;;;;;;7373162;19;20439;-62
2023/01/24 04:11:07;;;;;;;23.08;15.80;;;3.30;99.90;;;;;;7373343;19;20062;-62
2023/01/24 04:13:33;;;;;;;23.95;17.63;;;3.20;99.90;;;;;;7369726;19;20018;-62
2023/01/24 04:16:00;;;;;;;22.55;17.25;;;3.20;99.90;;;;;;7371079;19;20561;-63
2023/01/24 04:18:44;;;;;;;21.98;15.68;;;3.20;99.90;;;;;;7369832;19;20025;-63
2023/01/24 04:21:11;;;;;;;22.65;15.65;;;3.20;99.90;;;;;;7368612;19;20014;-62
2023/01/24 04:23:38;;;;;;;20.08;14.40;;;3.30;99.90;;;;;;7372585;19;20018;-62
2023/01/24 04:26:04;;;;;;;20.15;14.52;;;3.20;99.90;;;;;;7369583;19;20031;-63
2023/01/24 04:28:32;;;;;;;21.15;15.82;;;3.20;99.90;;;;;;7368420;19;20457;-62
2023/01/24 04:31:02;;;;;;;20.58;15.50;;;3.20;99.90;;;;;;7370833;19;20018;-63
2023/01/24 04:33:52;;;;;;;16.75;12.07;;;3.20;99.90;;;;;;7367224;19;20034;-62
2023/01/24 04:36:18;;;;;;;18.38;13.68;;;3.20;99.90;;;;;;7369125;19;20029;-63
2023/01/24 04:38:44;;;;;;;20.80;14.45;;;3.20;99.90;;;;;;7367050;19;20030;-62
2023/01/24 04:41:18;;;;;;;16.48;12.52;;;3.20;99.90;;;;;;7370010;19;20019;-62
2023/01/24 04:43:45;;;;;;;16.60;12.65;;;3.20;99.90;;;;;;7370098;19;20473;-62
2023/01/24 04:46:11;;;;;;;17.58;13.32;;;3.20;99.90;;;;;;7365752;19;20710;-62
2023/01/24 04:48:51;;;;;;;18.08;13.50;;;3.20;99.90;;;;;;7367139;19;20094;-63
2023/01/24 04:51:17;;;;;;;18.20;12.90;;;3.20;99.90;;;;;;7369628;19;20493;-62
2023/01/24 04:53:45;;;;;;;20.10;13.27;;;3.20;99.90;;;;;;7368106;19;20098;-63
2023/01/24 04:56:16;;;;;;;14.40;10.40;;;3.20;99.90;;;;;;7365541;19;20022;-62
2023/01/24 04:58:43;;;;;;;18.00;13.02;;;3.20;99.90;;;;;;7367783;19;20026;-62
2023/01/24 05:01:12;;;;;;;17.10;12.90;;;3.20;99.90;;;;;;7367361;19;20025;-63
2023/01/24 05:03:49;;;;;;;19.90;14.82;;;3.20;99.90;;;;;;7364575;19;20406;-63
2023/01/24 05:06:15;;;;;;;17.20;13.30;;;3.20;99.90;;;;;;7369289;19;20018;-63
2023/01/24 05:08:42;;;;;;;21.70;13.48;;;3.20;99.90;;;;;;7369990;19;20022;-62
2023/01/24 05:11:08;;;;;;;18.70;12.52;;;3.20;99.90;;;;;;7371863;19;20039;-63
2023/01/24 05:13:41;;;;;;;16.33;12.40;;;3.20;99.90;;;;;;7371797;19;20025;-62
2023/01/24 05:16:07;;;;;;;17.65;12.23;;;3.20;99.90;;;;;;7367907;19;20081;-62
2023/01/24 05:18:33;;;;;;;16.73;11.77;;;3.10;99.90;;;;;;7369284;19;20022;-60
2023/01/24 05:21:15;;;;;;;15.30;12.15;;;3.20;99.90;;;;;;7367321;19;20054;-61
2023/01/24 05:23:42;;;;;;;;;;;3.20;99.90;;;;;;7370751;19;20021;-61
2023/01/24 05:26:09;;;;;;;16.08;11.88;;;3.10;99.90;;;;;;7367118;19;19918;-60
2023/01/24 05:28:36;;;;;;;16.45;12.50;;;3.10;99.90;;;;;;7363411;19;20128;-63
2023/01/24 05:31:07;;;;;;;18.15;11.43;;;3.10;99.90;;;;;;7368183;19;20018;-62
2023/01/24 05:33:34;;;;;;;14.93;9.75;;;3.10;99.90;;;;;;7370989;19;20094;-63
2023/01/24 05:36:03;;;;;;;15.18;12.30;;;3.10;99.90;;;;;;7365964;19;20018;-62
2023/01/24 05:38:34;;;;;;;16.63;12.45;;;3.10;99.90;;;;;;7363327;19;20453;-62
2023/01/24 05:41:05;;;;;;;16.15;10.98;;;3.10;99.90;;;;;;7363785;19;20384;-62
2023/01/24 05:43:32;;;;;;;15.30;11.32;;;3.10;99.90;;;;;;7371082;19;20318;-62
2023/01/24 05:46:01;;;;;;;16.42;12.30;;;3.10;99.90;;;;;;7364791;19;20014;-62
2023/01/24 05:48:30;;;;;;;16.25;11.23;;;3.10;99.90;;;;;;7365188;19;20049;-62
2023/01/24 05:51:02;;;;;;;16.35;12.88;;;3.10;99.90;;;;;;7365061;19;20449;-60
2023/01/24 05:53:30;;;;;;;15.63;10.85;;;3.10;99.90;;;;;;7365744;19;20019;-60
2023/01/24 05:56:00;;;;;;;17.25;12.05;;;3.10;99.90;;;;;;7362900;19;20816;-60
2023/01/24 05:58:28;;;;;;;18.35;12.30;;;3.00;99.90;;;;;;7364855;19;20021;-60
2023/01/24 06:01:15;;;;;;;15.73;11.75;;;3.00;99.90;;;;;;7356534;19;20021;-60
2023/01/24 06:03:44;;;;;;;17.42;12.25;;;3.10;99.90;;;;;;7362862;19;20011;-61
2023/01/24 06:06:13;;;;;;;18.42;11.77;;;3.00;99.90;;;;;;7360796;19;20584;-60
2023/01/24 06:08:39;;;;;;;16.50;11.68;;;3.10;99.90;;;;;;7362760;19;20018;-60
2023/01/24 06:11:15;;;;;;;18.63;12.75;;;3.00;99.90;;;;;;7362812;19;20931;-60
2023/01/24 06:13:41;;;;;;;17.08;11.63;;;3.00;99.90;;;;;;7366095;19;20133;-61
2023/01/24 06:16:14;;;;;;;15.90;11.73;;;3.00;99.90;;;;;;7362134;19;20457;-62
2023/01/24 06:18:41;;;;;;;16.10;11.15;;;3.00;99.90;;;;;;7361369;19;20023;-63
2023/01/24 06:21:30;;;;;;;15.13;11.60;;;3.00;99.90;;;;;;7362215;19;21176;-60
2023/01/24 06:23:57;;;;;;;17.42;12.50;;;3.00;99.90;;;;;;7364113;19;20383;-61
2023/01/24 06:26:28;;;;;;;14.98;11.52;;;3.00;99.90;;;;;;7365013;19;20030;-62
2023/01/24 06:28:55;;;;;;;17.65;11.02;;;3.00;99.90;;;;;;7360454;19;20451;-61
2023/01/24 06:31:53;;;;;;;17.15;12.90;;;3.00;99.90;;;;;;7362093;19;20018;-60
2023/01/24 06:34:25;;;;;;;15.95;11.00;;;3.00;99.90;;;;;;7366095;19;20022;-63
2023/01/24 06:37:01;;;;;;;18.27;12.98;;;3.00;99.90;;;;;;7354275;19;20024;-60
2023/01/24 06:39:27;;;;;;;17.95;12.45;;;3.00;99.90;;;;;;7360656;19;20122;-60
2023/01/24 06:41:54;;;;;;;18.42;13.13;;;3.00;99.90;;;;;;7363610;19;20026;-62
2023/01/24 06:44:23;;;;;;;12.35;8.45;;;3.00;99.90;;;;;;7363078;19;20122;-60
2023/01/24 06:46:50;;;;;;;18.60;12.98;;;3.00;99.90;;;;;;7359762;19;20079;-60
2023/01/24 06:49:16;;;;;;;19.92;12.73;;;2.90;99.90;;;;;;7361061;19;20043;-60
2023/01/24 06:51:48;;;;;;;17.60;13.05;;;2.90;99.90;;;;;;7361206;19;20030;-61
2023/01/24 06:54:17;;;;;;;16.05;12.20;;;2.90;99.90;;;;;;7361963;19;20014;-60
2023/01/24 06:56:43;;;;;;;15.82;11.60;;;2.90;99.90;;;;;;7364060;19;20018;-62
2023/01/24 06:59:09;;;;;;;15.63;12.18;;;2.90;99.90;;;;;;7363147;19;20029;-60
2023/01/24 07:01:35;;;;;;;17.27;12.05;;;2.90;99.90;;;;;;7365248;19;20584;-62
2023/01/24 07:04:02;;;;;;;18.63;12.77;;;2.90;99.90;;;;;;7370755;19;20014;-63
2023/01/24 07:06:29;;;;;;;18.17;13.57;;;2.90;99.90;;;;;;7371756;19;20022;-62
2023/01/24 07:08:55;;;;;;;19.05;12.80;;;2.90;99.90;;;;;;7372725;19;20018;-62
2023/01/24 07:11:23;;;;;;;18.70;13.85;;;2.90;99.90;;;;;;7369008;19;20015;-62
2023/01/24 07:13:49;;;;;;;18.50;13.88;;;2.90;99.90;;;;;;7372069;19;20022;-63
2023/01/24 07:16:15;;;;;;;16.33;13.43;;;2.90;99.90;;;;;;7368530;19;20023;-62
2023/01/24 07:18:42;;;;;;;19.00;13.35;;;2.90;99.90;;;;;;7367704;19;20054;-64
2023/01/24 07:21:09;;;;;;;17.00;12.93;;;2.90;99.90;;;;;;7359893;19;20616;-62
2023/01/24 07:23:37;;;;;;;17.75;12.90;;;2.90;99.90;;;;;;7371028;19;20122;-62
2023/01/24 07:26:04;;;;;;;16.02;11.95;;;2.90;99.90;;;;;;7368915;19;20349;-62
2023/01/24 07:28:30;;;;;;;16.60;13.10;;;2.90;99.90;;;;;;7368885;19;20051;-61
2023/01/24 07:30:58;;;;;;;18.88;13.30;;;2.90;99.90;;;;;;7367908;19;20480;-62
2023/01/24 07:33:24;;;;;;;17.65;13.70;;;2.90;99.90;;;;;;7371065;19;20480;-62
2023/01/24 07:35:51;;;;;;;19.17;13.13;;;2.90;99.90;;;;;;7371743;19;20521;-60
2023/01/24 07:38:17;;;;;;;19.27;13.75;;;2.90;99.90;;;;;;7367727;19;20572;-60
2023/01/24 07:40:43;;;;;;;18.52;13.18;;;2.90;99.90;;;;;;7365904;19;20897;-59
2023/01/24 07:43:13;;;;;;;16.90;13.38;;;2.90;99.90;;;;;;7369785;19;20444;-60
2023/01/24 07:45:40;;;;;;;19.90;13.98;;;2.90;99.90;;;;;;7367828;19;20022;-60
2023/01/24 07:48:07;;;;;;;16.67;13.27;;;2.90;99.90;;;;;;7371078;19;20015;-61
2023/01/24 07:50:34;;;;;;;15.77;12.95;;;2.90;99.90;;;;;;7365891;19;20018;-60
2023/01/24 07:53:00;;;;;;;18.85;14.95;;;2.90;99.90;;;;;;7369210;19;20019;-60
2023/01/24 07:55:27;;;;;;;20.13;14.35;;;2.90;99.90;;;;;;7370677;19;20504;-60
2023/01/24 07:58:01;;;;;;;19.10;15.50;;;2.90;99.90;;;;;;7370781;19;20117;-60
2023/01/24 08:00:28;;;;;;;18.77;13.25;;;2.90;99.90;;;;;;7371352;19;20018;-60
2023/01/24 08:02:56;;;;;;;24.73;18.92;;;2.90;99.90;;;;;;7365440;19;20390;-60
2023/01/24 08:05:22;;;;;;;17.92;14.18;;;2.90;99.90;;;;;;7369960;19;20022;-60
2023/01/24 08:07:49;;;;;;;18.52;13.35;;;2.90;99.90;;;;;;7368019;19;20042;-60
2023/01/24 08:10:15;;;;;;;17.17;13.15;;;2.90;99.90;;;;;;7371025;19;20022;-60
2023/01/24 08:12:42;;;;;;;19.67;14.43;;;2.90;99.90;;;;;;7367756;19;20022;-60
2023/01/24 08:15:09;;;;;;;14.93;11.02;;;2.90;99.90;;;;;;7364266;19;20367;-60
2023/01/24 08:17:36;;;;;;;13.98;11.15;;;2.90;99.90;;;;;;7369521;19;20022;-60
2023/01/24 08:20:03;;;;;;;16.63;13.48;;;2.90;99.90;;;;;;7367393;19;20026;-60
2023/01/24 08:22:30;;;;;;;16.45;12.77;;;2.90;99.90;;;;;;7365073;19;20023;-60
2023/01/24 08:24:56;;;;;;;19.08;13.20;;;2.90;99.90;;;;;;7364996;19;20391;-62
2023/01/24 08:27:23;;;;;;;18.13;13.15;;;2.90;99.90;;;;;;7367812;19;20852;-62
2023/01/24 08:29:49;;;;;;;16.15;12.65;;;2.90;99.90;;;;;;7372348;19;20449;-62
2023/01/24 08:32:16;;;;;;;17.30;12.98;;;2.90;99.90;;;;;;7366610;19;20019;-63
2023/01/24 08:34:42;;;;;;;18.15;14.10;;;2.90;99.90;;;;;;7370138;19;20055;-63
2023/01/24 08:37:09;;;;;;;18.40;12.50;;;2.90;99.90;;;;;;7365641;19;20014;-62
2023/01/24 08:39:35;;;;;;;18.13;13.77;;;2.90;99.90;;;;;;7367149;19;20014;-63
2023/01/24 08:42:02;;;;;;;19.52;14.90;;;2.80;99.90;;;;;;7365643;19;20078;-63
2023/01/24 08:44:28;;;;;;;18.42;13.80;;;2.90;99.90;;;;;;7365735;19;20029;-63
2023/01/24 08:46:54;;;;;;;17.33;13.60;;;2.90;99.90;;;;;;7368797;19;20019;-62
2023/01/24 08:49:21;;;;;;;13.77;10.15;;;2.90;99.90;;;;;;7369187;19;20850;-63
2023/01/24 08:51:47;;;;;;;15.82;12.45;;;2.90;99.90;;;;;;7366261;19;20015;-62
2023/01/24 08:54:15;;;;;;;17.45;14.50;;;2.90;99.90;;;;;;7365618;19;20018;-63
2023/01/24 08:56:41;;;;;;;16.13;12.88;;;2.90;99.90;;;;;;7368537;19;20066;-62
2023/01/24 08:59:07;;;;;;;20.77;14.55;;;3.00;99.90;;;;;;7369761;19;20029;-62
2023/01/24 09:01:34;;;;;;;17.08;14.45;;;2.90;99.90;;;;;;7366848;19;20121;-62
2023/01/24 09:04:02;;;;;;;18.67;12.50;;;3.00;99.90;;;;;;7363433;19;20022;-60
2023/01/24 09:06:28;;;;;;;18.80;14.55;;;3.00;99.90;;;;;;7364201;19;20874;-60
2023/01/24 09:08:55;;;;;;;17.83;14.70;;;3.00;99.90;;;;;;7368964;19;20021;-62
2023/01/24 09:11:22;;;;;;;19.70;14.45;;;3.00;99.90;;;;;;7365013;19;20019;-62
2023/01/24 09:13:48;;;;;;;18.35;15.00;;;3.00;99.90;;;;;;7367778;19;20085;-63
2023/01/24 09:16:18;;;;;;;15.85;12.65;;;3.00;99.90;;;;;;7362143;19;20039;-64
2023/01/24 09:18:45;;;;;;;19.10;15.77;;;3.00;99.90;;;;;;7366579;19;20022;-63
2023/01/24 09:21:11;;;;;;;19.65;15.38;;;3.00;99.90;;;;;;7366715;19;20015;-63
2023/01/24 09:23:38;;;;;;;15.93;12.13;;;3.00;99.90;;;;;;7365490;19;20026;-63
2023/01/24 09:26:04;;;;;;;21.92;17.70;;;3.00;99.90;;;;;;7362727;19;20034;-59
2023/01/24 09:28:32;;;;;;;18.48;14.52;;;3.00;99.90;;;;;;7368707;19;20053;-60
2023/01/24 09:30:58;;;;;;;21.23;17.27;;;3.00;99.90;;;;;;7364051;19;20018;-60
2023/01/24 09:33:25;;;;;;;20.00;15.95;;;3.00;99.90;;;;;;7362468;19;20025;-60
2023/01/24 09:36:01;;;;;;;17.85;14.73;;;3.00;99.90;;;;;;7365712;19;20972;-63
2023/01/24 09:38:31;;;;;;;22.63;18.50;;;3.00;99.90;;;;;;7366538;19;20033;-60
2023/01/24 09:41:15;;;;;;;16.65;14.57;;;3.00;99.90;;;;;;7364241;19;20422;-60
2023/01/24 09:44:00;;;;;;;18.98;14.55;;;3.00;99.90;;;;;;7364137;19;20049;-60
2023/01/24 09:46:45;;;;;;;16.70;13.68;;;3.00;99.90;;;;;;7368357;19;20599;-59
2023/01/24 09:49:25;;;;;;;19.40;14.77;;;3.00;99.90;;;;;;7365666;19;20093;-63
2023/01/24 09:51:53;;;;;;;17.15;13.48;;;3.00;99.90;;;;;;7367233;19;20025;-62
2023/01/24 09:54:35;;;;;;;16.50;13.43;;;3.00;99.90;;;;;;7361392;19;20275;-60
2023/01/24 09:57:13;;;;;;;16.20;12.65;;;3.00;99.90;;;;;;7360711;19;20014;-60
2023/01/24 09:59:50;;;;;;;18.08;13.95;;;3.00;99.90;;;;;;7365464;19;20010;-62
2023/01/24 10:02:20;;;;;;;17.95;13.70;;;3.10;99.90;;;;;;7365196;19;20754;-63
2023/01/24 10:04:49;;;;;;;17.38;14.77;;;3.00;99.90;;;;;;7364375;19;20019;-62
2023/01/24 10:08:01;;;;;;;15.75;13.15;;;3.10;99.90;;;;;;7364252;19;20037;-62
2023/01/24 10:10:46;;;;;;;16.45;13.80;;;3.10;99.90;;;;;;7364256;19;20034;-62
2023/01/24 10:13:40;;;;;;;14.82;13.23;;;3.10;99.90;;;;;;7363648;19;20634;-63
2023/01/24 10:16:18;;;;;;;16.83;13.93;;;3.10;99.90;;;;;;7365422;19;20019;-63
2023/01/24 10:19:26;;;;;;;17.77;14.25;;;3.10;99.90;;;;;;7366257;19;20010;-60
2023/01/24 10:22:10;;;;;;;16.20;13.35;;;3.20;99.90;;;;;;7363956;19;20027;-60
2023/01/24 10:24:41;;;;;;;18.67;13.70;;;3.10;99.90;;;;;;7359956;19;20047;-60
2023/01/24 10:27:25;;;;;;;18.33;12.63;;;3.10;99.90;;;;;;7352935;19;20375;-62
2023/01/24 10:30:12;;;;;;;16.73;13.48;;;3.10;99.90;;;;;;7362367;19;20122;-62
2023/01/24 10:32:43;;;;;;;17.30;13.15;;;3.10;99.90;;;;;;7362665;19;20023;-63
2023/01/24 10:35:19;;;;;;;17.92;13.85;;;3.10;99.90;;;;;;7370264;19;20019;-60
2023/01/24 10:37:55;;;;;;;16.80;13.75;;;3.10;99.90;;;;;;7372112;19;20072;-60
2023/01/24 10:40:25;;;;;;;18.48;13.73;;;3.20;99.90;;;;;;7370096;19;20055;-61
2023/01/24 10:42:52;;;;;;;14.80;12.18;;;3.10;99.90;;;;;;7373235;19;20025;-60
2023/01/24 10:45:32;;;;;;;19.48;13.13;;;3.10;99.90;;;;;;7367913;19;20018;-60
2023/01/24 10:48:19;;;;;;;19.73;15.05;;;3.10;99.90;;;;;;7373467;19;20014;-60
2023/01/24 10:50:46;;;;;;;17.25;13.57;;;3.10;99.90;;;;;;7370741;19;20065;-60
2023/01/24 10:53:24;;;;;;;19.45;15.02;;;3.10;99.90;;;;;;7370403;19;20125;-62
2023/01/24 10:55:59;;;;;;;15.68;12.38;;;3.10;99.90;;;;;;7369660;19;20635;-63
2023/01/24 10:58:32;;;;;;;17.90;14.25;;;3.10;99.90;;;;;;7367994;19;20059;-62
2023/01/24 11:01:07;;;;;;;22.65;16.95;;;3.10;99.90;;;;;;7363249;19;20022;-62
2023/01/24 11:03:49;;;;;;;21.63;13.45;;;3.10;99.90;;;;;;7363190;19;20386;-62
2023/01/24 11:06:22;;;;;;;20.05;14.85;;;3.10;99.90;;;;;;7362215;19;20019;-62
2023/01/24 11:08:54;;;;;;;18.65;15.07;;;3.20;99.90;;;;;;7367140;19;20018;-63
2023/01/24 11:11:25;;;;;;;15.65;12.48;;;3.20;99.90;;;;;;7362945;19;20035;-63
2023/01/24 11:13:56;;;;;;;17.17;14.63;;;3.20;99.90;;;;;;7366851;19;20014;-63
2023/01/24 11:16:52;;;;;;;17.33;13.10;;;3.10;99.90;;;;;;7358101;19;20035;-62
2023/01/24 11:19:30;;;;;;;17.48;13.57;;;3.10;99.90;;;;;;7360231;19;20053;-62
2023/01/24 11:22:20;;;;;;;19.25;14.70;;;3.10;99.90;;;;;;7362076;19;20040;-63
2023/01/24 11:24:47;;;;;;;17.60;14.73;;;3.10;99.90;;;;;;7363828;19;20054;-63
2023/01/24 11:27:15;;;;;;;17.17;13.82;;;3.10;99.90;;;;;;7362996;19;20441;-63
2023/01/24 11:29:42;;;;;;;19.35;14.07;;;3.10;99.90;;;;;;7361737;19;20034;-63
2023/01/24 11:32:17;;;;;;;17.75;14.32;;;3.10;99.90;;;;;;7361377;19;20737;-63
2023/01/24 11:34:57;;;;;;;17.63;14.57;;;3.10;99.90;;;;;;7357177;19;20037;-63
2023/01/24 11:37:45;;;;;;;17.63;14.05;;;3.10;99.90;;;;;;7356317;19;20021;-63
2023/01/24 11:40:38;;;;;;;18.48;15.32;;;3.10;99.90;;;;;;7357100;19;20022;-63
2023/01/24 11:43:13;;;;;;;16.20;13.70;;;3.10;99.90;;;;;;7360851;19;20032;-63
2023/01/24 11:46:02;;;;;;;22.38;17.50;;;3.10;99.90;;;;;;7360655;19;20030;-63
2023/01/24 11:48:56;;;;;;;21.13;16.65;;;3.10;99.90;;;;;;7363689;19;20023;-63
2023/01/24 11:51:31;;;;;;;18.05;14.80;;;3.10;99.90;;;;;;7361782;19;20030;-63
2023/01/24 11:54:06;;;;;;;20.20;15.65;;;3.20;99.90;;;;;;7359206;19;20490;-64
2023/01/24 11:56:48;;;;;;;20.60;15.82;;;3.20;99.90;;;;;;7364225;19;20088;-62
2023/01/24 11:59:32;;;;;;;18.50;15.48;;;3.20;99.90;;;;;;7363462;19;20026;-63
2023/01/24 12:02:23;;;;;;;15.85;13.00;;;3.20;99.90;;;;;;7360613;19;20022;-63
2023/01/24 12:05:24;;;;;;;18.42;13.80;;;3.10;99.90;;;;;;7362517;19;20475;-63
2023/01/24 12:08:12;;;;;;;19.70;15.43;;;3.10;99.90;;;;;;7361075;19;20035;-63
2023/01/24 12:11:16;;;;;;;18.05;15.18;;;3.20;99.90;;;;;;7361538;19;20278;-63
2023/01/24 12:14:24;;;;;;;18.40;15.48;;;3.20;99.90;;;;;;7361341;19;20032;-62
2023/01/24 12:17:15;;;;;;;18.58;15.10;;;3.10;99.90;;;;;;7361749;19;20014;-62
2023/01/24 12:19:51;;;;;;;18.02;15.18;;;3.10;99.90;;;;;;7361736;19;20018;-63
2023/01/24 12:22:22;;;;;;;17.98;15.73;;;3.10;99.90;;;;;;7361970;19;20045;-62
2023/01/24 12:25:13;;;;;;;18.98;15.57;;;3.10;99.90;;;;;;7358703;19;20018;-62
2023/01/24 12:27:42;;;;;;;20.08;15.52;;;3.10;99.90;;;;;;7359311;19;20388;-63
2023/01/24 12:30:37;;;;;;;22.13;16.67;;;3.10;99.90;;;;;;7362170;19;20019;-63
2023/01/24 12:33:16;;;;;;;18.17;16.30;;;3.10;99.90;;;;;;7358183;19;20097;-62
2023/01/24 12:35:47;;;;;;;19.38;15.30;;;3.10;99.90;;;;;;7360256;19;20018;-60
2023/01/24 12:38:37;;;;;;;21.02;16.63;;;3.10;99.90;;;;;;7361402;19;20502;-59
2023/01/24 12:41:32;;;;;;;17.67;14.10;;;3.10;99.90;;;;;;7360368;19;20078;-59
2023/01/24 12:44:10;;;;;;;18.75;15.18;;;3.10;99.90;;;;;;7362430;19;20038;-62
2023/01/24 12:47:00;;;;;;;19.60;16.08;;;3.10;99.90;;;;;;7361532;19;20022;-59
2023/01/24 12:49:48;;;;;;;16.58;14.50;;;3.10;99.90;;;;;;7357686;19;20022;-59
2023/01/24 12:52:27;;;;;;;19.38;15.70;;;3.00;99.90;;;;;;7355047;19;20055;-59
2023/01/24 12:55:01;;;;;;;17.95;14.00;;;3.10;99.90;;;;;;7364054;19;20107;-60
2023/01/24 12:57:36;;;;;;;16.92;14.35;;;3.10;99.90;;;;;;7360918;19;20018;-59
2023/01/24 13:00:04;;;;;;;16.85;12.55;;;3.10;99.90;;;;;;7362288;19;20022;-60
2023/01/24 13:02:49;;;;;;;17.90;15.50;;;3.10;99.90;;;;;;7363912;19;20018;-59
2023/01/24 13:05:18;;;;;;;23.42;17.35;;;3.10;99.90;;;;;;7362569;19;20102;-59
2023/01/24 13:08:23;;;;;;;18.90;15.25;;;3.00;99.90;;;;;;7365048;19;20011;-59
2023/01/24 13:11:00;;;;;;;18.50;14.52;;;3.10;99.90;;;;;;7361068;19;20018;-59
2023/01/24 13:13:46;;;;;;;20.10;16.30;;;3.00;99.90;;;;;;7360950;19;20018;-59
2023/01/24 13:16:53;;;;;;;20.05;15.43;;;3.00;99.90;;;;;;7362128;19;20015;-60
2023/01/24 13:19:37;;;;;;;23.15;18.17;;;3.00;99.90;;;;;;7357384;19;20041;-60
2023/01/24 13:22:45;;;;;;;17.70;14.80;;;3.00;99.90;;;;;;7363148;19;20488;-59
2023/01/24 13:25:26;;;;;;;19.42;16.48;;;3.00;99.90;;;;;;7361235;19;20033;-63
2023/01/24 13:28:17;;;;;;;16.67;14.43;;;2.90;99.90;;;;;;7360759;19;20031;-63
2023/01/24 13:31:18;;;;;;;18.45;15.02;;;3.00;99.90;;;;;;7359965;19;20019;-62
2023/01/24 13:33:49;;;;;;;18.90;13.93;;;2.90;99.90;;;;;;7358099;19;20078;-63
2023/01/24 13:36:19;;;;;;;18.52;15.63;;;2.90;99.90;;;;;;7357034;19;20130;-62
2023/01/24 13:38:48;;;;;;;17.38;13.77;;;2.90;99.90;;;;;;7357146;19;20449;-62